createdAt,value
2023-05-16T00:02:04.698Z,2.50
2023-05-16T00:04:34.052Z,2.20
2023-05-16T00:07:02.518Z,2.38
2023-05-16T00:09:30.702Z,2.00
2023-05-16T00:11:59.739Z,2.35
2023-05-16T00:14:28.196Z,2.17
2023-05-16T00:16:58.615Z,2.30
2023-05-16T00:19:27.662Z,2.00
2023-05-16T00:21:55.910Z,2.00
2023-05-16T00:24:24.078Z,2.03
2023-05-16T00:26:52.281Z,1.90
2023-05-16T00:29:20.518Z,2.08
2023-05-16T00:31:48.898Z,2.05
2023-05-16T00:34:17.394Z,2.40
2023-05-16T00:36:45.637Z,1.83
2023-05-16T00:39:14.013Z,1.85
2023-05-16T00:41:42.318Z,2.00
2023-05-16T00:44:10.519Z,1.80
2023-05-16T00:46:38.940Z,2.22
2023-05-16T00:49:07.916Z,1.70
2023-05-16T00:51:36.548Z,2.40
2023-05-16T00:54:05.060Z,2.08
2023-05-16T00:56:33.761Z,2.05
2023-05-16T00:59:02.268Z,1.92
2023-05-16T01:01:31.351Z,1.92
2023-05-16T01:04:01.658Z,2.00
2023-05-16T01:06:30.130Z,2.30
2023-05-16T01:08:58.320Z,2.10
2023-05-16T01:11:32.437Z,2.05
2023-05-16T01:14:18.696Z,2.08
2023-05-16T01:17:09.958Z,2.40
2023-05-16T01:19:41.196Z,2.10
2023-05-16T01:22:38.535Z,1.92
2023-05-16T01:25:33.913Z,2.00
2023-05-16T01:28:04.220Z,1.70
2023-05-16T01:30:37.419Z,2.50
2023-05-16T01:33:05.939Z,2.35
2023-05-16T01:35:35.168Z,2.10
2023-05-16T01:38:22.465Z,2.22
2023-05-16T01:40:57.033Z,1.70
2023-05-16T01:43:53.620Z,2.10
2023-05-16T01:46:30.775Z,1.98
2023-05-16T01:49:18.664Z,2.00
2023-05-16T01:51:57.046Z,2.10
2023-05-16T01:54:28.900Z,2.38
2023-05-16T01:56:58.185Z,2.20
2023-05-16T01:59:27.195Z,1.92
2023-05-16T02:01:58.358Z,2.10
2023-05-16T02:04:27.080Z,2.00
2023-05-16T02:06:55.647Z,2.05
2023-05-16T02:09:24.011Z,2.03
2023-05-16T02:11:52.236Z,1.98
2023-05-16T02:14:20.416Z,2.08
2023-05-16T02:16:50.228Z,2.10
2023-05-16T02:19:18.701Z,2.25
2023-05-16T02:21:47.029Z,2.08
2023-05-16T02:24:15.403Z,2.00
2023-05-16T02:26:43.775Z,2.40
2023-05-16T02:29:12.072Z,1.98
2023-05-16T02:31:40.416Z,2.08
2023-05-16T02:34:08.727Z,1.90
2023-05-16T02:36:37.125Z,2.13
2023-05-16T02:39:05.466Z,2.05
2023-05-16T02:41:34.064Z,2.13
2023-05-16T02:44:02.272Z,1.98
2023-05-16T02:46:35.108Z,2.15
2023-05-16T02:49:04.474Z,2.15
2023-05-16T02:51:32.719Z,1.85
2023-05-16T02:54:01.975Z,1.98
2023-05-16T02:56:30.202Z,1.70
2023-05-16T02:58:58.380Z,2.00
2023-05-16T03:01:26.815Z,1.92
2023-05-16T03:03:55.217Z,2.00
2023-05-16T03:06:23.691Z,2.28
2023-05-16T03:08:51.978Z,1.90
2023-05-16T03:11:24.946Z,1.80
2023-05-16T03:13:53.211Z,1.77
2023-05-16T03:16:22.518Z,1.90
2023-05-16T03:18:51.179Z,7.85
2023-05-16T03:21:19.441Z,1.92
2023-05-16T03:23:47.925Z,1.83
2023-05-16T03:26:16.252Z,2.13
2023-05-16T03:28:44.445Z,1.90
2023-05-16T03:31:12.671Z,1.60
2023-05-16T03:33:40.983Z,1.75
2023-05-16T03:36:09.509Z,2.22
2023-05-16T03:38:38.428Z,1.80
2023-05-16T03:41:06.738Z,2.00
2023-05-16T03:43:34.978Z,1.75
2023-05-16T03:46:03.454Z,1.63
2023-05-16T03:48:31.825Z,1.52
2023-05-16T03:51:00.059Z,1.50
2023-05-16T03:53:28.456Z,1.23
2023-05-16T03:55:56.618Z,1.42
2023-05-16T03:58:24.888Z,1.40
2023-05-16T04:00:53.073Z,1.33
2023-05-16T04:03:21.772Z,1.73
2023-05-16T04:05:50.325Z,1.30
2023-05-16T04:08:18.512Z,1.48
2023-05-16T04:10:46.711Z,1.17
2023-05-16T04:13:16.391Z,1.30
2023-05-16T04:15:45.043Z,1.30
2023-05-16T04:18:14.343Z,1.17
2023-05-16T04:20:45.496Z,1.23
2023-05-16T04:23:13.845Z,1.48
2023-05-16T04:25:43.249Z,1.48
2023-05-16T04:28:11.548Z,1.30
2023-05-16T04:30:39.760Z,1.10
2023-05-16T04:33:08.067Z,1.30
2023-05-16T04:35:36.354Z,1.30
2023-05-16T04:38:05.539Z,1.80
2023-05-16T04:40:34.175Z,1.35
2023-05-16T04:43:02.510Z,0.95
2023-05-16T04:45:30.758Z,1.30
2023-05-16T04:47:59.379Z,1.40
2023-05-16T04:50:27.724Z,1.30
2023-05-16T04:52:56.571Z,1.30
2023-05-16T04:55:25.173Z,1.20
2023-05-16T04:57:53.504Z,1.38
2023-05-16T05:00:21.988Z,1.40
2023-05-16T05:02:50.470Z,1.25
2023-05-16T05:05:18.828Z,2.17
2023-05-16T05:07:47.660Z,1.27
2023-05-16T05:10:15.969Z,1.40
2023-05-16T05:12:44.205Z,1.33
2023-05-16T05:15:12.431Z,1.48
2023-05-16T05:17:40.769Z,1.40
2023-05-16T05:20:09.506Z,1.55
2023-05-16T05:22:37.673Z,1.50
2023-05-16T05:25:07.353Z,1.30
2023-05-16T05:27:35.585Z,1.70
2023-05-16T05:30:04.833Z,1.50
2023-05-16T05:32:33.063Z,1.50
2023-05-16T05:35:01.443Z,1.60
2023-05-16T05:37:29.953Z,1.48
2023-05-16T05:39:58.398Z,1.40
2023-05-16T05:42:26.590Z,1.20
2023-05-16T05:44:54.839Z,1.60
2023-05-16T05:47:23.176Z,1.25
2023-05-16T05:49:52.045Z,1.48
2023-05-16T05:52:20.272Z,1.30
2023-05-16T05:54:49.906Z,1.05
2023-05-16T05:57:18.161Z,1.30
2023-05-16T05:59:46.339Z,1.55
2023-05-16T06:02:15.171Z,1.48
2023-05-16T06:04:43.663Z,1.50
2023-05-16T06:07:11.868Z,1.38
2023-05-16T06:09:40.160Z,1.60
2023-05-16T06:12:08.646Z,1.67
2023-05-16T06:14:36.888Z,1.70
2023-05-16T06:17:05.154Z,1.85
2023-05-16T06:19:33.413Z,1.60
2023-05-16T06:22:01.658Z,1.70
2023-05-16T06:24:30.767Z,1.98
2023-05-16T06:26:58.980Z,1.40
2023-05-16T06:29:27.483Z,1.67
2023-05-16T06:31:55.823Z,2.00
2023-05-16T06:34:28.890Z,1.92
2023-05-16T06:36:57.109Z,2.00
2023-05-16T06:39:25.290Z,1.95
2023-05-16T06:41:56.325Z,1.90
2023-05-16T06:44:25.408Z,2.10
2023-05-16T06:46:53.847Z,2.53
2023-05-16T06:49:22.184Z,2.88
2023-05-16T06:51:50.694Z,2.53
2023-05-16T06:54:18.915Z,2.53
2023-05-16T06:56:47.243Z,3.10
2023-05-16T06:59:15.461Z,3.28
2023-05-16T07:01:43.806Z,3.20
2023-05-16T07:04:12.158Z,2.90
2023-05-16T07:06:40.776Z,3.47
2023-05-16T07:09:09.282Z,4.03
2023-05-16T07:11:37.522Z,3.60
2023-05-16T07:14:05.777Z,3.60
2023-05-16T07:16:34.084Z,3.17
2023-05-16T07:19:02.490Z,3.38
2023-05-16T07:21:30.949Z,3.30
2023-05-16T07:23:59.213Z,3.03
2023-05-16T07:26:27.518Z,3.05
2023-05-16T07:28:56.168Z,2.85
2023-05-16T07:31:25.067Z,3.20
2023-05-16T07:33:53.300Z,3.00
2023-05-16T07:36:22.119Z,2.65
2023-05-16T07:38:50.714Z,2.75
2023-05-16T07:41:18.931Z,2.83
2023-05-16T07:43:47.177Z,2.80
2023-05-16T07:46:15.447Z,2.40
2023-05-16T07:48:43.745Z,2.78
2023-05-16T07:51:11.981Z,2.97
2023-05-16T07:53:40.261Z,2.83
2023-05-16T07:56:09.043Z,2.75
2023-05-16T07:58:37.380Z,3.08
2023-05-16T08:01:05.748Z,2.55
2023-05-16T08:03:34.198Z,2.90
2023-05-16T08:06:02.727Z,3.13
2023-05-16T08:08:31.485Z,2.90
2023-05-16T08:10:59.699Z,2.90
2023-05-16T08:13:27.960Z,3.17
2023-05-16T08:15:56.404Z,3.10
2023-05-16T08:18:25.075Z,3.13
2023-05-16T08:20:53.302Z,3.17
2023-05-16T08:23:22.026Z,3.17
2023-05-16T08:25:51.023Z,3.53
2023-05-16T08:28:19.258Z,3.63
2023-05-16T08:30:48.120Z,3.85
2023-05-16T08:33:16.911Z,3.90
2023-05-16T08:35:45.953Z,3.13
2023-05-16T08:38:14.227Z,3.42
2023-05-16T08:40:43.967Z,3.42
2023-05-16T08:43:12.859Z,3.13
2023-05-16T08:45:43.500Z,3.20
2023-05-16T08:48:12.825Z,3.15
2023-05-16T08:50:41.149Z,2.90
2023-05-16T08:53:10.713Z,2.88
2023-05-16T08:55:41.967Z,2.78
2023-05-16T08:58:10.469Z,2.40
2023-05-16T09:00:39.253Z,2.30
2023-05-16T09:03:07.799Z,2.55
2023-05-16T09:05:36.446Z,2.67
2023-05-16T09:08:04.766Z,2.38
2023-05-16T09:10:33.008Z,2.65
2023-05-16T09:13:01.260Z,2.83
2023-05-16T09:15:33.826Z,2.58
2023-05-16T09:18:03.928Z,2.50
2023-05-16T09:20:32.516Z,2.50
2023-05-16T09:23:01.718Z,2.25
2023-05-16T09:25:32.718Z,1.90
2023-05-16T09:28:03.526Z,1.80
2023-05-16T09:30:37.933Z,1.95
2023-05-16T09:33:08.889Z,2.00
2023-05-16T09:35:44.215Z,2.10
2023-05-16T09:38:18.550Z,2.28
2023-05-16T09:40:47.519Z,2.13
2023-05-16T09:43:19.265Z,2.00
2023-05-16T09:45:49.374Z,2.30
2023-05-16T09:48:18.807Z,2.40
2023-05-16T09:50:55.846Z,2.25
2023-05-16T09:53:33.300Z,1.80
2023-05-16T09:56:06.095Z,2.03
2023-05-16T09:58:35.978Z,2.17
2023-05-16T10:01:05.294Z,2.50
2023-05-16T10:03:36.541Z,2.55
2023-05-16T10:06:07.536Z,2.28
2023-05-16T10:08:37.747Z,2.30
2023-05-16T10:11:07.542Z,2.40
2023-05-16T10:13:37.506Z,2.20
2023-05-16T10:16:12.959Z,2.35
2023-05-16T10:18:42.357Z,2.55
2023-05-16T10:21:15.629Z,2.42
2023-05-16T10:23:45.148Z,2.45
2023-05-16T10:26:15.504Z,2.40
2023-05-16T10:28:44.259Z,2.03
2023-05-16T10:31:12.848Z,2.20
2023-05-16T10:33:42.018Z,1.95
2023-05-16T10:36:11.896Z,2.03
2023-05-16T10:38:41.479Z,2.00
2023-05-16T10:41:10.676Z,2.15
2023-05-16T10:43:39.012Z,2.17
2023-05-16T10:46:13.303Z,2.05
2023-05-16T10:48:43.268Z,2.30
2023-05-16T10:51:36.181Z,2.83
2023-05-16T10:54:10.998Z,2.90
2023-05-16T10:56:39.979Z,2.40
2023-05-16T10:59:29.364Z,2.53
2023-05-16T11:01:58.005Z,2.58
2023-05-16T11:04:53.540Z,2.65
2023-05-16T11:07:24.044Z,2.58
2023-05-16T11:10:07.744Z,2.50
2023-05-16T11:12:52.723Z,2.60
2023-05-16T11:15:30.867Z,3.40
2023-05-16T11:18:11.902Z,3.15
2023-05-16T11:20:41.281Z,3.10
2023-05-16T11:23:18.463Z,3.40
2023-05-16T11:25:48.799Z,3.22
2023-05-16T11:28:17.523Z,3.00
2023-05-16T11:30:50.760Z,3.10
2023-05-16T11:33:19.910Z,2.90
2023-05-16T11:38:44.384Z,3.00
2023-05-16T11:41:13.181Z,2.83
2023-05-16T11:43:46.953Z,3.33
2023-05-16T11:46:17.152Z,3.53
2023-05-16T11:48:47.418Z,3.15
2023-05-16T11:51:19.717Z,3.83
2023-05-16T11:53:51.333Z,3.50
2023-05-16T11:56:19.718Z,4.20
2023-05-16T11:58:48.788Z,3.63
2023-05-16T12:01:17.070Z,3.35
2023-05-16T12:03:45.481Z,3.40
2023-05-16T12:06:13.797Z,3.83
2023-05-16T12:08:52.323Z,3.78
2023-05-16T12:11:22.587Z,3.80
2023-05-16T12:13:51.393Z,3.88
2023-05-16T12:16:19.990Z,4.40
2023-05-16T12:18:48.885Z,4.45
2023-05-16T12:21:17.339Z,4.10
2023-05-16T12:23:45.683Z,3.90
2023-05-16T12:26:13.920Z,4.50
2023-05-16T12:28:42.514Z,4.53
2023-05-16T12:31:31.216Z,4.32
2023-05-16T12:34:01.123Z,4.28
2023-05-16T12:36:34.168Z,4.00
2023-05-16T12:39:04.573Z,3.88
2023-05-16T12:41:33.096Z,5.53
2023-05-16T12:44:18.538Z,4.80
2023-05-16T12:46:53.497Z,4.85
2023-05-16T12:49:25.236Z,4.40
2023-05-16T12:51:55.908Z,4.80
2023-05-16T12:54:24.806Z,4.35
2023-05-16T12:56:53.068Z,4.97
2023-05-16T12:59:21.529Z,4.50
2023-05-16T13:01:50.284Z,3.97
2023-05-16T13:04:20.667Z,4.55
2023-05-16T13:09:20.459Z,3.70
2023-05-16T13:11:49.484Z,4.45
2023-05-16T13:14:20.942Z,4.50
2023-05-16T13:16:49.553Z,4.00
2023-05-16T13:19:18.119Z,4.20
2023-05-16T13:21:46.391Z,4.65
2023-05-16T13:24:14.606Z,4.57
2023-05-16T13:26:42.814Z,4.32
2023-05-16T13:29:12.599Z,4.45
2023-05-16T13:31:40.890Z,4.30
2023-05-16T13:34:09.207Z,4.63
2023-05-16T13:36:52.184Z,4.28
2023-05-16T13:39:22.960Z,4.90
2023-05-16T13:41:51.854Z,4.55
2023-05-16T13:44:20.521Z,6.43
2023-05-16T13:46:49.645Z,6.22
2023-05-16T13:49:17.921Z,5.18
2023-05-16T13:51:46.331Z,5.78
2023-05-16T13:54:14.681Z,5.18
2023-05-16T13:56:42.995Z,5.88
2023-05-16T13:59:14.262Z,6.05
2023-05-16T14:01:46.852Z,6.35
2023-05-16T14:04:15.341Z,5.85
2023-05-16T14:06:43.696Z,5.50
2023-05-16T14:09:13.799Z,5.82
2023-05-16T14:11:42.148Z,6.43
2023-05-16T14:14:10.349Z,6.45
2023-05-16T14:16:38.720Z,6.30
2023-05-16T14:19:07.320Z,5.72
2023-05-16T14:21:35.616Z,5.50
2023-05-16T14:24:03.874Z,5.63
2023-05-16T14:26:33.173Z,5.63
2023-05-16T14:29:01.576Z,5.43
2023-05-16T14:31:31.065Z,5.65
2023-05-16T14:33:59.910Z,5.70
2023-05-16T14:36:28.156Z,5.47
2023-05-16T14:38:57.255Z,6.22
2023-05-16T14:41:25.592Z,6.30
2023-05-16T14:43:53.793Z,6.05
2023-05-16T14:46:22.098Z,7.00
2023-05-16T14:48:50.645Z,6.00
2023-05-16T14:51:18.875Z,6.35
2023-05-16T14:53:48.156Z,6.90
2023-05-16T14:56:17.228Z,6.47
2023-05-16T14:58:45.783Z,6.82
2023-05-16T15:01:14.172Z,6.93
2023-05-16T15:06:13.587Z,6.88
2023-05-16T15:08:42.414Z,7.80
2023-05-16T15:11:10.670Z,8.02
2023-05-16T15:13:39.062Z,8.65
2023-05-16T15:16:08.595Z,8.18
2023-05-16T15:18:37.154Z,7.90
2023-05-16T15:21:05.501Z,8.05
2023-05-16T15:23:34.026Z,8.68
2023-05-16T15:26:02.333Z,9.35
2023-05-16T15:28:30.610Z,11.05
2023-05-16T15:30:58.900Z,11.02
2023-05-16T15:33:27.251Z,11.30
2023-05-16T15:35:55.542Z,11.70
2023-05-16T15:38:23.847Z,11.98
2023-05-16T15:41:12.230Z,10.95
2023-05-16T15:43:41.369Z,11.27
2023-05-16T15:46:12.615Z,10.75
2023-05-16T15:48:45.598Z,10.40
2023-05-16T15:51:14.271Z,10.07
2023-05-16T15:53:42.613Z,9.65
2023-05-16T15:56:10.858Z,9.27
2023-05-16T15:58:39.165Z,9.07
2023-05-16T16:01:07.516Z,9.23
2023-05-16T16:03:35.983Z,9.63
2023-05-16T16:06:04.536Z,8.90
2023-05-16T16:08:32.799Z,8.73
2023-05-16T16:11:01.200Z,8.15
2023-05-16T16:13:29.541Z,8.63
2023-05-16T16:15:57.973Z,8.68
2023-05-16T16:18:26.251Z,8.85
2023-05-16T16:20:54.907Z,9.07
2023-05-16T16:23:23.219Z,9.50
2023-05-16T16:25:51.522Z,8.45
2023-05-16T16:28:21.177Z,8.40
2023-05-16T16:30:51.349Z,7.53
2023-05-16T16:33:19.708Z,8.30
2023-05-16T16:35:48.194Z,8.25
2023-05-16T16:38:17.226Z,8.52
2023-05-16T16:40:45.596Z,8.35
2023-05-16T16:43:14.016Z,7.90
2023-05-16T16:45:42.455Z,7.97
2023-05-16T16:48:11.595Z,6.93
2023-05-16T16:50:41.660Z,7.22
2023-05-16T16:53:10.725Z,7.28
2023-05-16T16:55:40.877Z,7.30
2023-05-16T16:58:09.397Z,7.28
2023-05-16T17:00:37.764Z,7.15
2023-05-16T17:03:06.173Z,6.93
2023-05-16T17:05:34.618Z,6.32
2023-05-16T17:08:03.001Z,5.93
2023-05-16T17:10:31.604Z,6.85
2023-05-16T17:13:06.780Z,6.75
2023-05-16T17:15:35.215Z,6.63
2023-05-16T17:18:03.547Z,6.65
2023-05-16T17:20:32.083Z,6.88
2023-05-16T17:23:00.320Z,7.35
2023-05-16T17:25:29.992Z,6.97
2023-05-16T17:27:58.551Z,6.85
2023-05-16T17:30:27.087Z,6.00
2023-05-16T17:32:55.429Z,5.70
2023-05-16T17:35:23.833Z,5.93
2023-05-16T17:37:52.343Z,6.40
2023-05-16T17:40:20.779Z,5.60
2023-05-16T17:42:49.318Z,5.70
2023-05-16T17:45:18.970Z,5.07
2023-05-16T17:47:47.321Z,5.35
2023-05-16T17:50:15.942Z,5.32
2023-05-16T17:52:44.992Z,4.90
2023-05-16T17:55:13.280Z,4.03
2023-05-16T17:57:42.184Z,4.13
2023-05-16T18:00:10.936Z,5.05
2023-05-16T18:02:40.301Z,4.78
2023-05-16T18:05:09.201Z,5.03
2023-05-16T18:07:37.486Z,4.80
2023-05-16T18:10:05.928Z,5.38
2023-05-16T18:12:34.186Z,4.68
2023-05-16T18:15:02.708Z,4.60
2023-05-16T18:17:30.950Z,4.65
2023-05-16T18:19:59.517Z,5.30
2023-05-16T18:22:28.703Z,4.35
2023-05-16T18:24:56.940Z,4.45
2023-05-16T18:27:25.183Z,4.35
2023-05-16T18:29:53.437Z,3.58
2023-05-16T18:32:22.475Z,3.47
2023-05-16T18:34:51.270Z,3.63
2023-05-16T18:37:19.526Z,3.40
2023-05-16T18:39:50.082Z,3.45
2023-05-16T18:42:18.569Z,3.22
2023-05-16T18:44:47.127Z,3.13
2023-05-16T18:47:16.660Z,2.65
2023-05-16T18:49:44.985Z,2.88
2023-05-16T18:52:13.339Z,2.60
2023-05-16T18:54:41.741Z,3.05
2023-05-16T18:57:10.024Z,2.85
2023-05-16T18:59:38.453Z,3.10
2023-05-16T19:02:06.801Z,3.05
2023-05-16T19:04:35.280Z,3.15
2023-05-16T19:07:05.161Z,3.15
2023-05-16T19:09:34.449Z,3.40
2023-05-16T19:12:02.747Z,3.33
2023-05-16T19:14:31.109Z,3.60
2023-05-16T19:16:59.430Z,3.25
2023-05-16T19:19:27.917Z,3.83
2023-05-16T19:21:56.404Z,3.15
2023-05-16T19:24:24.703Z,2.90
2023-05-16T19:26:52.945Z,2.80
2023-05-16T19:29:23.056Z,3.40
2023-05-16T19:31:51.361Z,3.10
2023-05-16T19:34:22.005Z,2.90
2023-05-16T19:36:50.888Z,2.95
2023-05-16T19:39:19.308Z,3.10
2023-05-16T19:41:51.655Z,3.40
2023-05-16T19:44:20.607Z,3.28
2023-05-16T19:46:49.058Z,3.42
2023-05-16T19:49:19.623Z,3.40
2023-05-16T19:51:49.076Z,3.25
2023-05-16T19:54:17.364Z,3.17
2023-05-16T19:56:45.614Z,2.83
2023-05-16T19:59:13.875Z,3.00
2023-05-16T20:01:42.302Z,2.80
2023-05-16T20:04:10.824Z,3.00
2023-05-16T20:06:39.235Z,3.20
2023-05-16T20:09:08.114Z,2.70
2023-05-16T20:11:36.452Z,2.70
2023-05-16T20:14:04.740Z,3.22
2023-05-16T20:16:33.057Z,3.25
2023-05-16T20:19:01.984Z,3.17
2023-05-16T20:21:30.251Z,2.92
2023-05-16T20:23:58.494Z,2.83
2023-05-16T20:26:26.737Z,2.75
2023-05-16T20:28:54.979Z,3.00
2023-05-16T20:31:23.222Z,2.95
2023-05-16T20:33:51.559Z,2.53
2023-05-16T20:36:19.950Z,2.50
2023-05-16T20:38:48.513Z,3.05
2023-05-16T20:41:16.893Z,2.97
2023-05-16T20:43:45.262Z,2.53
2023-05-16T20:46:13.550Z,2.55
2023-05-16T20:48:41.875Z,2.40
2023-05-16T20:51:10.228Z,2.72
2023-05-16T20:53:38.520Z,2.47
2023-05-16T20:56:07.118Z,2.40
2023-05-16T20:58:35.399Z,2.58
2023-05-16T21:01:03.600Z,2.90
2023-05-16T21:03:31.976Z,2.22
2023-05-16T21:06:00.289Z,2.60
2023-05-16T21:08:28.594Z,2.47
2023-05-16T21:10:56.906Z,2.53
2023-05-16T21:13:25.296Z,2.33
2023-05-16T21:15:53.636Z,2.03
2023-05-16T21:18:22.136Z,2.20
2023-05-16T21:20:50.778Z,2.40
2023-05-16T21:23:19.046Z,2.50
2023-05-16T21:25:47.304Z,2.33
2023-05-16T21:28:15.601Z,2.30
2023-05-16T21:30:43.806Z,2.30
2023-05-16T21:33:12.432Z,2.28
2023-05-16T21:35:40.726Z,2.30
2023-05-16T21:38:08.976Z,2.50
2023-05-16T21:40:37.205Z,2.38
2023-05-16T21:43:05.412Z,2.33
2023-05-16T21:45:33.706Z,2.20
2023-05-16T21:48:02.069Z,2.10
2023-05-16T21:50:30.432Z,2.20
2023-05-16T21:52:58.656Z,2.50
2023-05-16T21:55:27.331Z,2.10
2023-05-16T21:57:55.741Z,2.22
2023-05-16T22:00:24.286Z,2.20
2023-05-16T22:02:52.596Z,2.40
2023-05-16T22:05:21.121Z,2.20
2023-05-16T22:07:49.404Z,2.20
2023-05-16T22:10:19.405Z,1.85
2023-05-16T22:12:47.695Z,2.20
2023-05-16T22:15:15.932Z,2.08
2023-05-16T22:17:44.229Z,2.00
2023-05-16T22:20:12.954Z,2.40
2023-05-16T22:22:41.699Z,2.20
2023-05-16T22:25:10.336Z,2.00
2023-05-16T22:27:38.677Z,2.30
2023-05-16T22:30:07.811Z,2.20
2023-05-16T22:32:36.227Z,2.38
2023-05-16T22:35:04.613Z,2.42
2023-05-16T22:37:32.918Z,2.17
2023-05-16T22:40:01.255Z,2.40
2023-05-16T22:42:29.607Z,1.98
2023-05-16T22:44:58.104Z,1.90
2023-05-16T22:47:26.404Z,2.08
2023-05-16T22:49:54.632Z,2.00
2023-05-16T22:52:23.015Z,2.10
2023-05-16T22:54:51.441Z,2.40
2023-05-16T22:57:19.780Z,2.05
2023-05-16T22:59:48.300Z,1.80
2023-05-16T23:02:16.668Z,2.20
2023-05-16T23:04:45.052Z,1.90
2023-05-16T23:07:13.350Z,1.90
2023-05-16T23:09:41.669Z,2.35
2023-05-16T23:12:10.392Z,1.80
2023-05-16T23:14:38.637Z,2.22
2023-05-16T23:17:07.260Z,1.60
2023-05-16T23:19:35.700Z,1.75
2023-05-16T23:22:04.307Z,1.80
2023-05-16T23:24:32.756Z,1.77
2023-05-16T23:27:00.951Z,1.70
2023-05-16T23:29:29.187Z,1.70
2023-05-16T23:31:57.576Z,1.75
2023-05-16T23:34:27.680Z,1.75
2023-05-16T23:36:56.061Z,1.60
2023-05-16T23:39:24.354Z,1.50
2023-05-16T23:41:52.636Z,1.75
2023-05-16T23:44:20.907Z,1.70
2023-05-16T23:46:49.463Z,1.45
2023-05-16T23:49:17.690Z,2.03
2023-05-16T23:54:20.938Z,1.50
2023-05-16T23:56:49.272Z,1.35
2023-05-16T23:59:17.618Z,1.33
